< < Back
Terminal Aerodrome Forecast


Current Version              Previous Versions:   1  2  3  4  5  6  7  8  9  

Terminal Aerodrome Forecast

396
FTUS42 KJAX 200500
TAFSSI
TAF
KSSI 200521Z 2006/2106 02003KT P6SM SCT050 BKN100 OVC150
     FM200800 03005KT P6SM VCSH BKN050 OVC100
     FM201600 03006KT P6SM BKN050 BKN100=

Latest METAR

566
SAUS70 KWBC 201600 RRK
MTRSSI
METAR KSSI 201553Z AUTO 02008KT 10SM FEW034 OVC100 15/12 A3017 RMK AO2
SLP216 T01500122


USA.gov is the U.S. government's official web portal to all federal, state and local government web resources and services.